createdAt,value
2018-07-01T00:00:27.159Z,19.10
2018-07-01T00:02:57.075Z,19.12
2018-07-01T00:05:27.186Z,19.11
2018-07-01T00:07:57.320Z,18.99
2018-07-01T00:10:27.075Z,19.05
2018-07-01T00:12:56.830Z,19.00
2018-07-01T00:15:26.611Z,19.00
2018-07-01T00:17:56.482Z,19.23
2018-07-01T00:20:26.387Z,19.27
2018-07-01T00:22:55.927Z,19.21
2018-07-01T00:25:25.638Z,19.17
2018-07-01T00:27:55.153Z,19.13
2018-07-01T00:30:24.750Z,19.13
2018-07-01T00:32:54.411Z,19.12
2018-07-01T00:35:24.431Z,19.24
2018-07-01T00:37:54.063Z,19.26
2018-07-01T00:40:23.882Z,19.02
2018-07-01T00:42:53.623Z,19.04
2018-07-01T00:45:23.386Z,19.06
2018-07-01T00:47:53.050Z,19.15
2018-07-01T00:50:22.941Z,19.16
2018-07-01T00:52:52.504Z,19.18
2018-07-01T00:55:22.202Z,19.33
2018-07-01T00:57:51.842Z,19.42
2018-07-01T01:00:26.655Z,19.49
2018-07-01T01:02:56.534Z,19.03
2018-07-01T01:05:26.319Z,19.04
2018-07-01T01:07:56.475Z,18.95
2018-07-01T01:10:26.943Z,18.87
2018-07-01T01:12:57.839Z,18.70
2018-07-01T01:15:27.830Z,18.70
2018-07-01T01:17:57.668Z,18.67
2018-07-01T01:20:27.432Z,18.52
2018-07-01T01:22:57.078Z,18.54
2018-07-01T01:25:26.687Z,18.51
2018-07-01T01:27:56.401Z,18.38
2018-07-01T01:30:26.135Z,18.30
2018-07-01T01:32:55.860Z,18.18
2018-07-01T01:35:25.858Z,18.19
2018-07-01T01:37:55.726Z,18.12
2018-07-01T01:40:29.066Z,17.94
2018-07-01T01:43:03.668Z,17.95
2018-07-01T01:45:37.994Z,18.02
2018-07-01T01:48:15.604Z,17.97
2018-07-01T01:51:49.636Z,17.80
2018-07-01T01:54:54.735Z,17.62
2018-07-01T01:57:29.750Z,17.77
2018-07-01T02:00:04.819Z,17.55
2018-07-01T02:02:39.701Z,17.59
2018-07-01T02:05:20.842Z,17.57
2018-07-01T02:07:54.647Z,17.40
2018-07-01T02:10:24.796Z,17.33
2018-07-01T02:12:55.028Z,17.45
2018-07-01T02:15:28.083Z,17.24
2018-07-01T02:17:57.977Z,17.19
2018-07-01T02:20:30.677Z,17.00
2018-07-01T02:23:07.532Z,17.02
2018-07-01T02:25:38.287Z,17.07
2018-07-01T02:28:08.154Z,16.93
2018-07-01T02:30:38.022Z,16.89
2018-07-01T02:33:07.978Z,16.95
2018-07-01T02:35:37.599Z,16.83
2018-07-01T02:38:07.183Z,16.77
2018-07-01T02:40:37.013Z,16.73
2018-07-01T02:43:06.919Z,16.68
2018-07-01T02:45:36.803Z,16.67
2018-07-01T02:48:06.462Z,16.73
2018-07-01T02:50:36.242Z,16.62
2018-07-01T02:53:05.830Z,16.53
2018-07-01T02:55:35.404Z,16.56
2018-07-01T02:58:05.354Z,16.51
2018-07-01T03:00:34.994Z,16.45
2018-07-01T03:03:04.706Z,16.44
2018-07-01T03:05:34.566Z,16.41
2018-07-01T03:08:04.331Z,16.51
2018-07-01T03:10:34.039Z,16.51
2018-07-01T03:13:03.745Z,16.42
2018-07-01T03:15:33.633Z,16.39
2018-07-01T03:18:03.780Z,16.50
2018-07-01T03:20:33.319Z,16.49
2018-07-01T03:23:02.915Z,16.54
2018-07-01T03:25:32.611Z,16.57
2018-07-01T03:28:02.518Z,16.47
2018-07-01T03:30:32.142Z,16.39
2018-07-01T03:33:01.917Z,16.40
2018-07-01T03:35:31.559Z,16.49
2018-07-01T03:38:01.513Z,16.38
2018-07-01T03:40:31.561Z,16.30
2018-07-01T03:43:01.355Z,16.32
2018-07-01T03:45:31.235Z,16.26
2018-07-01T03:48:00.875Z,16.15
2018-07-01T03:50:30.763Z,16.21
2018-07-01T03:53:00.367Z,16.19
2018-07-01T03:55:29.807Z,16.30
2018-07-01T03:57:59.783Z,16.42
2018-07-01T04:00:29.359Z,16.36
2018-07-01T04:02:59.009Z,16.58
2018-07-01T04:05:28.851Z,16.60
2018-07-01T04:07:58.513Z,16.58
2018-07-01T04:10:28.075Z,16.66
2018-07-01T04:12:58.142Z,16.91
2018-07-01T04:15:27.955Z,17.03
2018-07-01T04:17:57.767Z,16.91
2018-07-01T04:20:27.644Z,16.91
2018-07-01T04:22:57.227Z,17.15
2018-07-01T04:25:27.215Z,17.06
2018-07-01T04:27:56.892Z,17.14
2018-07-01T04:30:26.680Z,16.96
2018-07-01T04:32:56.358Z,17.00
2018-07-01T04:35:26.342Z,17.13
2018-07-01T04:37:56.130Z,17.34
2018-07-01T04:40:26.002Z,17.35
2018-07-01T04:42:56.512Z,17.28
2018-07-01T04:45:26.294Z,17.46
2018-07-01T04:47:56.052Z,17.29
2018-07-01T04:50:25.630Z,17.40
2018-07-01T04:52:55.302Z,17.37
2018-07-01T04:55:25.190Z,17.44
2018-07-01T04:57:55.167Z,17.42
2018-07-01T05:00:24.871Z,17.58
2018-07-01T05:02:54.667Z,17.56
2018-07-01T05:05:24.543Z,17.63
2018-07-01T05:07:54.353Z,17.68
2018-07-01T05:10:24.063Z,17.73
2018-07-01T05:12:53.662Z,17.60
2018-07-01T05:15:23.279Z,17.64
2018-07-01T05:17:53.051Z,17.70
2018-07-01T05:20:22.657Z,17.79
2018-07-01T05:22:52.279Z,17.77
2018-07-01T05:25:21.979Z,17.73
2018-07-01T05:27:51.771Z,17.89
2018-07-01T05:30:21.811Z,17.88
2018-07-01T05:32:51.842Z,17.96
2018-07-01T05:35:21.437Z,17.90
2018-07-01T05:37:51.254Z,17.90
2018-07-01T05:40:21.013Z,17.94
2018-07-01T05:42:50.747Z,17.93
2018-07-01T05:45:20.522Z,18.01
2018-07-01T05:47:50.196Z,18.05
2018-07-01T05:50:19.765Z,17.93
2018-07-01T05:52:49.300Z,17.94
2018-07-01T05:55:19.407Z,17.89
2018-07-01T05:57:49.248Z,17.90
2018-07-01T06:00:19.166Z,18.15
2018-07-01T06:02:49.287Z,18.16
2018-07-01T06:05:19.397Z,18.01
2018-07-01T06:07:49.344Z,18.22
2018-07-01T06:10:19.227Z,18.26
2018-07-01T06:12:49.491Z,18.27
2018-07-01T06:15:20.283Z,18.30
2018-07-01T06:17:49.907Z,18.32
2018-07-01T06:20:19.508Z,18.29
2018-07-01T06:22:49.528Z,18.42
2018-07-01T06:25:19.144Z,18.38
2018-07-01T06:27:49.269Z,18.45
2018-07-01T06:30:18.907Z,18.34
2018-07-01T06:32:48.748Z,18.40
2018-07-01T06:35:18.654Z,18.27
2018-07-01T06:37:48.186Z,18.37
2018-07-01T06:40:17.925Z,18.39
2018-07-01T06:42:47.623Z,18.24
2018-07-01T06:45:17.287Z,18.39
2018-07-01T06:47:46.836Z,18.44
2018-07-01T06:50:16.470Z,18.15
2018-07-01T06:52:46.251Z,18.21
2018-07-01T06:55:16.043Z,18.31
2018-07-01T06:57:46.035Z,18.44
2018-07-01T07:00:16.046Z,18.51
2018-07-01T07:02:45.955Z,18.38
2018-07-01T07:05:15.783Z,18.46
2018-07-01T07:07:45.603Z,18.38
2018-07-01T07:10:15.603Z,18.43
2018-07-01T07:12:45.593Z,18.58
2018-07-01T07:15:15.181Z,18.78
2018-07-01T07:17:44.747Z,18.71
2018-07-01T07:20:14.305Z,18.66
2018-07-01T07:22:44.214Z,18.63
2018-07-01T07:25:13.937Z,18.61
2018-07-01T07:27:43.687Z,18.84
2018-07-01T07:30:13.341Z,18.86
2018-07-01T07:32:43.215Z,18.98
2018-07-01T07:35:13.086Z,19.08
2018-07-01T07:37:43.031Z,19.11
2018-07-01T07:40:13.022Z,19.14
2018-07-01T07:42:42.790Z,19.13
2018-07-01T07:45:12.428Z,19.23
2018-07-01T07:47:41.919Z,19.28
2018-07-01T07:50:11.763Z,19.52
2018-07-01T07:52:41.560Z,19.56
2018-07-01T07:55:11.403Z,19.53
2018-07-01T07:57:41.244Z,19.58
2018-07-01T08:00:11.156Z,19.53
2018-07-01T08:02:40.780Z,19.81
2018-07-01T08:05:10.376Z,19.82
2018-07-01T08:07:40.141Z,19.87
2018-07-01T08:10:10.279Z,20.04
2018-07-01T08:12:40.096Z,20.04
2018-07-01T08:15:09.660Z,20.14
2018-07-01T08:17:39.283Z,20.16
2018-07-01T08:20:09.079Z,20.28
2018-07-01T08:22:38.855Z,20.39
2018-07-01T08:25:08.560Z,20.40
2018-07-01T08:27:38.342Z,20.45
2018-07-01T08:30:08.316Z,20.31
2018-07-01T08:32:38.064Z,20.46
2018-07-01T08:35:08.146Z,20.64
2018-07-01T08:37:37.834Z,20.53
2018-07-01T08:40:07.589Z,20.59
2018-07-01T08:42:37.550Z,20.66
2018-07-01T08:45:08.671Z,20.55
2018-07-01T08:47:38.427Z,20.68
2018-07-01T08:50:08.713Z,20.55
2018-07-01T08:52:38.447Z,20.64
2018-07-01T08:55:08.276Z,20.81
2018-07-01T08:57:38.099Z,21.01
2018-07-01T09:00:08.720Z,21.07
2018-07-01T09:02:38.281Z,20.99
2018-07-01T09:05:08.091Z,20.93
2018-07-01T09:07:37.963Z,21.27
2018-07-01T09:10:07.812Z,21.41
2018-07-01T09:12:37.314Z,21.56
2018-07-01T09:15:07.060Z,21.54
2018-07-01T09:17:37.013Z,21.61
2018-07-01T09:20:07.414Z,22.02
2018-07-01T09:22:37.092Z,21.83
2018-07-01T09:25:07.123Z,22.00
2018-07-01T09:27:37.032Z,22.01
2018-07-01T09:30:08.224Z,22.09
2018-07-01T09:32:37.923Z,21.86
2018-07-01T09:35:07.755Z,22.07
2018-07-01T09:37:37.497Z,22.11
2018-07-01T09:40:08.818Z,22.32
2018-07-01T09:42:39.658Z,22.28
2018-07-01T09:45:09.195Z,22.29
2018-07-01T09:47:39.198Z,22.49
2018-07-01T09:50:09.043Z,22.39
2018-07-01T09:52:38.954Z,22.50
2018-07-01T09:55:08.723Z,22.27
2018-07-01T09:57:38.688Z,22.42
2018-07-01T10:00:08.729Z,22.58
2018-07-01T10:02:38.634Z,22.44
2018-07-01T10:05:09.574Z,22.62
2018-07-01T10:07:39.539Z,22.69
2018-07-01T10:10:09.104Z,22.93
2018-07-01T10:12:38.636Z,23.19
2018-07-01T10:15:08.204Z,23.12
2018-07-01T10:17:37.696Z,23.13
2018-07-01T10:20:07.637Z,23.41
2018-07-01T10:22:37.404Z,23.70
2018-07-01T10:25:07.010Z,23.91
2018-07-01T10:27:36.773Z,23.94
2018-07-01T10:30:06.655Z,23.81
2018-07-01T10:32:36.451Z,23.84
2018-07-01T10:35:06.397Z,24.06
2018-07-01T10:37:36.212Z,24.34
2018-07-01T10:40:06.112Z,24.20
2018-07-01T10:42:35.683Z,24.39
2018-07-01T10:45:06.111Z,24.39
2018-07-01T10:47:35.913Z,24.53
2018-07-01T10:50:05.916Z,24.68
2018-07-01T10:52:35.639Z,24.41
2018-07-01T10:55:05.466Z,24.78
2018-07-01T10:57:35.267Z,24.97
2018-07-01T11:00:05.387Z,25.01
2018-07-01T11:02:35.171Z,24.86
2018-07-01T11:05:05.235Z,25.21
2018-07-01T11:07:35.045Z,25.13
2018-07-01T11:10:04.982Z,25.38
2018-07-01T11:12:34.533Z,25.69
2018-07-01T11:15:04.412Z,25.53
2018-07-01T11:17:34.251Z,25.52
2018-07-01T11:20:03.790Z,25.71
2018-07-01T11:22:33.700Z,25.60
2018-07-01T11:25:03.799Z,25.94
2018-07-01T11:27:33.509Z,25.54
2018-07-01T11:30:03.468Z,25.44
2018-07-01T11:32:33.548Z,25.40
2018-07-01T11:35:03.643Z,25.80
2018-07-01T11:37:33.346Z,25.93
2018-07-01T11:40:03.020Z,26.11
2018-07-01T11:42:32.731Z,26.20
2018-07-01T11:45:02.635Z,26.05
2018-07-01T11:47:32.631Z,26.49
2018-07-01T11:50:02.579Z,26.54
2018-07-01T11:52:32.253Z,26.45
2018-07-01T11:55:01.945Z,26.58
2018-07-01T11:57:31.920Z,26.86
2018-07-01T12:00:01.638Z,27.08
2018-07-01T12:02:31.191Z,26.77
2018-07-01T12:05:16.210Z,27.06
2018-07-01T12:07:30.899Z,27.31
2018-07-01T12:10:00.543Z,27.13
2018-07-01T12:12:30.094Z,27.16
2018-07-01T12:14:59.780Z,27.13
2018-07-01T12:17:29.424Z,27.46
2018-07-01T12:19:59.203Z,27.76
2018-07-01T12:22:28.963Z,27.97
2018-07-01T12:24:58.658Z,28.04
2018-07-01T12:27:28.526Z,27.69
2018-07-01T12:29:58.403Z,27.87
2018-07-01T12:32:28.610Z,27.56
2018-07-01T12:35:00.531Z,27.51
2018-07-01T12:37:30.138Z,27.83
2018-07-01T12:39:59.802Z,27.89
2018-07-01T12:42:29.632Z,28.01
2018-07-01T12:44:59.486Z,27.89
2018-07-01T12:47:29.716Z,28.28
2018-07-01T12:49:59.518Z,28.67
2018-07-01T12:52:29.276Z,29.02
2018-07-01T12:54:59.256Z,28.79
2018-07-01T12:57:29.304Z,29.13
2018-07-01T12:59:58.970Z,28.64
2018-07-01T13:02:28.983Z,28.71
2018-07-01T13:04:58.675Z,28.51
2018-07-01T13:07:28.398Z,28.57
2018-07-01T13:09:58.339Z,28.08
2018-07-01T13:12:27.991Z,28.49
2018-07-01T13:14:57.928Z,28.35
2018-07-01T13:17:27.715Z,28.13
2018-07-01T13:19:57.736Z,27.87
2018-07-01T13:22:27.621Z,27.91
2018-07-01T13:24:57.342Z,27.15
2018-07-01T13:27:27.043Z,27.28
2018-07-01T13:29:56.871Z,26.95
2018-07-01T13:32:26.663Z,26.32
2018-07-01T13:34:56.560Z,26.49
2018-07-01T13:37:26.189Z,25.91
2018-07-01T13:39:55.749Z,26.02
2018-07-01T13:42:25.602Z,25.69
2018-07-01T13:44:55.465Z,25.50
2018-07-01T13:49:53.559Z,25.00
2018-07-01T13:52:23.598Z,24.96
2018-07-01T13:54:53.398Z,24.85
2018-07-01T13:57:23.257Z,24.60
2018-07-01T13:59:53.374Z,24.67
2018-07-01T14:02:23.357Z,24.33
2018-07-01T14:04:53.408Z,24.21
2018-07-01T14:07:22.995Z,24.18
2018-07-01T14:09:52.597Z,23.99
2018-07-01T14:12:22.176Z,23.69
2018-07-01T14:14:52.060Z,23.85
2018-07-01T14:17:22.117Z,24.03
2018-07-01T14:19:51.653Z,24.06
2018-07-01T14:22:21.691Z,23.99
2018-07-01T14:24:51.768Z,24.13
2018-07-01T14:27:21.627Z,24.05
2018-07-01T14:29:51.132Z,23.96
2018-07-01T14:32:20.810Z,23.83
2018-07-01T14:34:50.457Z,24.20
2018-07-01T14:37:20.051Z,24.29
2018-07-01T14:39:49.560Z,24.05
2018-07-01T14:42:19.237Z,24.44
2018-07-01T14:44:49.354Z,24.27
2018-07-01T14:47:19.224Z,24.23
2018-07-01T14:49:49.286Z,24.41
2018-07-01T14:52:19.049Z,24.16
2018-07-01T14:54:49.094Z,24.23
2018-07-01T14:57:19.074Z,24.43
2018-07-01T14:59:48.743Z,24.69
2018-07-01T15:02:18.665Z,24.78
2018-07-01T15:04:48.214Z,24.73
2018-07-01T15:07:17.820Z,24.89
2018-07-01T15:09:47.380Z,25.24
2018-07-01T15:12:17.007Z,25.32
2018-07-01T15:14:46.579Z,25.64
2018-07-01T15:17:16.239Z,26.41
2018-07-01T15:19:45.899Z,26.48
2018-07-01T15:22:15.568Z,26.97
2018-07-01T15:24:45.179Z,27.16
2018-07-01T15:27:14.991Z,27.27
2018-07-01T15:29:44.964Z,27.62
2018-07-01T15:32:14.927Z,28.12
2018-07-01T15:34:44.488Z,28.39
2018-07-01T15:37:14.310Z,28.99
2018-07-01T15:39:44.087Z,29.51
2018-07-01T15:42:13.883Z,29.75
2018-07-01T15:44:43.844Z,29.71
2018-07-01T15:47:13.811Z,28.77
2018-07-01T15:49:43.586Z,29.18
2018-07-01T15:52:13.503Z,28.95
2018-07-01T15:54:43.563Z,28.86
2018-07-01T15:57:13.393Z,28.70
2018-07-01T15:59:43.482Z,28.40
2018-07-01T16:02:13.094Z,28.95
2018-07-01T16:04:42.648Z,27.85
2018-07-01T16:07:12.350Z,27.51
2018-07-01T16:09:42.168Z,27.15
2018-07-01T16:12:11.906Z,27.09
2018-07-01T16:14:41.791Z,27.14
2018-07-01T16:17:11.475Z,26.97
2018-07-01T16:19:41.245Z,26.88
2018-07-01T16:22:10.923Z,27.03
2018-07-01T16:25:46.619Z,26.77
2018-07-01T16:28:21.427Z,25.90
2018-07-01T16:30:51.530Z,25.74
2018-07-01T16:33:21.439Z,25.61
2018-07-01T16:35:51.094Z,25.48
2018-07-01T16:38:20.984Z,25.51
2018-07-01T16:40:50.691Z,25.24
2018-07-01T16:43:20.224Z,25.10
2018-07-01T16:45:50.162Z,24.83
2018-07-01T16:48:19.743Z,24.68
2018-07-01T16:50:49.486Z,24.72
2018-07-01T16:53:19.366Z,24.05
2018-07-01T16:55:49.170Z,24.08
2018-07-01T16:58:18.963Z,24.04
2018-07-01T17:00:48.607Z,23.63
2018-07-01T17:03:18.192Z,23.71
2018-07-01T17:05:47.855Z,23.50
2018-07-01T17:08:17.859Z,23.49
2018-07-01T17:10:47.687Z,23.28
2018-07-01T17:13:17.658Z,23.48
2018-07-01T17:15:47.322Z,23.26
2018-07-01T17:18:17.037Z,23.19
2018-07-01T17:20:46.837Z,23.24
2018-07-01T17:23:16.518Z,23.23
2018-07-01T17:25:48.300Z,23.05
2018-07-01T17:28:17.965Z,22.96
2018-07-01T17:30:47.519Z,22.87
2018-07-01T17:33:22.232Z,23.31
2018-07-01T17:35:52.583Z,23.17
2018-07-01T17:38:22.633Z,23.04
2018-07-01T17:40:52.788Z,22.87
2018-07-01T17:43:22.679Z,22.50
2018-07-01T17:45:52.899Z,22.60
2018-07-01T17:48:22.795Z,22.69
2018-07-01T17:50:52.675Z,22.50
2018-07-01T17:53:33.371Z,22.08
2018-07-01T17:56:03.250Z,21.60
2018-07-01T17:58:32.879Z,21.77
2018-07-01T18:01:02.518Z,21.74
2018-07-01T18:03:32.082Z,21.35
2018-07-01T18:06:01.860Z,21.55
2018-07-01T18:08:31.639Z,21.49
2018-07-01T18:11:01.374Z,21.35
2018-07-01T18:13:31.192Z,21.34
2018-07-01T18:16:00.959Z,21.20
2018-07-01T18:18:31.399Z,20.95
2018-07-01T18:21:00.988Z,20.93
2018-07-01T18:24:02.959Z,20.85
2018-07-01T18:26:00.910Z,20.73
2018-07-01T18:28:41.526Z,20.70
2018-07-01T18:31:00.070Z,20.65
2018-07-01T18:33:29.611Z,20.61
2018-07-01T18:35:59.186Z,20.64
2018-07-01T18:38:28.838Z,19.94
2018-07-01T18:40:58.475Z,18.98
2018-07-01T18:43:28.466Z,18.98
2018-07-01T18:45:58.413Z,18.65
2018-07-01T18:48:28.142Z,18.40
2018-07-01T18:50:57.796Z,18.07
2018-07-01T18:53:27.803Z,17.89
2018-07-01T18:55:57.632Z,17.58
2018-07-01T18:58:27.210Z,17.51
2018-07-01T19:00:56.807Z,17.40
2018-07-01T19:03:26.405Z,17.39
2018-07-01T19:05:56.243Z,17.25
2018-07-01T19:08:26.079Z,17.09
2018-07-01T19:10:55.938Z,17.08
2018-07-01T19:13:25.707Z,17.29
2018-07-01T19:15:55.450Z,17.20
2018-07-01T19:18:25.119Z,17.14
2018-07-01T19:20:55.088Z,16.89
2018-07-01T19:23:24.905Z,17.02
2018-07-01T19:25:54.929Z,17.23
2018-07-01T19:28:24.554Z,17.03
2018-07-01T19:30:54.147Z,16.98
2018-07-01T19:33:23.805Z,16.76
2018-07-01T19:35:53.799Z,16.79
2018-07-01T19:38:23.901Z,16.83
2018-07-01T19:40:53.601Z,16.89
2018-07-01T19:43:23.609Z,16.83
2018-07-01T19:45:53.526Z,16.90
2018-07-01T19:48:23.298Z,16.83
2018-07-01T19:50:52.980Z,16.81
2018-07-01T19:53:22.695Z,16.78
2018-07-01T19:55:52.508Z,16.92
2018-07-01T19:58:22.507Z,16.98
2018-07-01T20:00:52.055Z,17.01
2018-07-01T20:03:21.617Z,17.07
2018-07-01T20:05:51.127Z,17.27
2018-07-01T20:08:21.005Z,17.45
2018-07-01T20:10:50.741Z,17.47
2018-07-01T20:13:20.591Z,17.56
2018-07-01T20:15:50.220Z,17.56
2018-07-01T20:18:20.059Z,17.61
2018-07-01T20:20:49.581Z,17.53
2018-07-01T20:23:19.354Z,17.29
2018-07-01T20:25:49.026Z,17.37
2018-07-01T20:28:18.669Z,17.29
2018-07-01T20:30:48.225Z,17.34
2018-07-01T20:33:17.770Z,17.33
2018-07-01T20:35:47.381Z,17.38
2018-07-01T20:38:17.225Z,17.49
2018-07-01T20:40:47.056Z,17.58
2018-07-01T20:43:17.260Z,17.45
2018-07-01T20:45:47.160Z,17.36
2018-07-01T20:48:17.124Z,17.35
2018-07-01T20:50:47.071Z,17.39
2018-07-01T20:53:16.955Z,17.36
2018-07-01T20:55:46.720Z,17.37
2018-07-01T20:58:16.301Z,17.31
2018-07-01T21:00:45.866Z,17.39
2018-07-01T21:03:15.596Z,17.55
2018-07-01T21:05:45.377Z,17.55
2018-07-01T21:08:15.452Z,17.51
2018-07-01T21:10:45.090Z,17.41
2018-07-01T21:13:14.938Z,17.29
2018-07-01T21:15:44.969Z,17.39
2018-07-01T21:18:15.181Z,17.34
2018-07-01T21:20:45.036Z,17.43
2018-07-01T21:23:15.116Z,17.25
2018-07-01T21:25:44.940Z,17.28
2018-07-01T21:28:14.598Z,17.30
2018-07-01T21:30:44.154Z,17.21
2018-07-01T21:33:13.802Z,17.36
2018-07-01T21:35:43.638Z,17.47
2018-07-01T21:38:13.451Z,17.58
2018-07-01T21:40:43.256Z,17.49
2018-07-01T21:43:13.017Z,17.37
2018-07-01T21:45:42.691Z,17.16
2018-07-01T21:48:12.728Z,17.22
2018-07-01T21:50:42.926Z,17.23
2018-07-01T21:53:12.972Z,17.15
2018-07-01T21:55:42.670Z,17.28
2018-07-01T21:58:12.352Z,17.21
2018-07-01T22:00:41.910Z,17.24
2018-07-01T22:03:11.837Z,17.26
2018-07-01T22:05:41.694Z,17.20
2018-07-01T22:08:11.388Z,17.29
2018-07-01T22:10:52.165Z,17.15
2018-07-01T22:14:28.525Z,17.10
2018-07-01T22:16:59.083Z,17.26
2018-07-01T22:19:28.843Z,17.19
2018-07-01T22:21:59.605Z,17.34
2018-07-01T22:24:30.341Z,17.18
2018-07-01T22:27:00.024Z,17.03
2018-07-01T22:29:29.786Z,16.91
2018-07-01T22:31:59.603Z,16.90
2018-07-01T22:34:29.714Z,17.01
2018-07-01T22:36:59.653Z,17.08
2018-07-01T22:39:31.262Z,16.94
2018-07-01T22:42:02.329Z,16.85
2018-07-01T22:44:32.640Z,17.27
2018-07-01T22:47:02.470Z,17.36
2018-07-01T22:49:32.399Z,17.19
2018-07-01T22:52:02.098Z,16.99
2018-07-01T22:54:31.750Z,17.20
2018-07-01T22:57:01.447Z,17.03
2018-07-01T22:59:31.116Z,16.92
2018-07-01T23:03:10.906Z,16.78
2018-07-01T23:05:40.327Z,16.75
2018-07-01T23:08:10.085Z,16.76
2018-07-01T23:10:40.066Z,16.73
2018-07-01T23:13:09.742Z,16.48
2018-07-01T23:15:39.536Z,16.31
2018-07-01T23:18:09.274Z,16.04
2018-07-01T23:20:39.070Z,15.63
2018-07-01T23:23:09.182Z,15.48
2018-07-01T23:25:38.790Z,15.29
2018-07-01T23:28:08.453Z,15.25
2018-07-01T23:30:38.252Z,15.36
2018-07-01T23:33:08.334Z,15.28
2018-07-01T23:35:38.046Z,15.23
2018-07-01T23:38:07.675Z,15.10
2018-07-01T23:40:37.685Z,14.93
2018-07-01T23:43:07.376Z,14.98
2018-07-01T23:45:37.231Z,15.05
2018-07-01T23:48:07.183Z,15.08
2018-07-01T23:50:37.034Z,15.03
2018-07-01T23:53:06.855Z,15.12
2018-07-01T23:55:36.713Z,15.22
2018-07-01T23:58:06.377Z,15.40
